Terminal Aerodrome Forecast
Issued by NWS

Home | Current Version | Previous Version | Text Only | Print | Product List | Glossary On
Versions: 1 2 3 4 5 6 7 8 9 10 11 12 13 14 15 16 17 18 19 20 21 22 23 24 25 26 27
000
FTUS45 KCYS 201700
TAFAIA
TAF
KAIA 201720Z 2018/2118 26008KT P6SM SCT150
     FM202300 28008KT P6SM VCTS SCT060CB BKN090
      TEMPO 2023/2102 5SM TSRA BKN050CB
     FM210200 25005KT P6SM BKN150=

USA.gov is the U.S. government's official web portal to all federal, state and local government web resources and services.